Bloomington, IN

6:48 PM EDT on July 03, 2015 (GMT -0400)
Gentry Estates | | Change Station
CLOSE
Current Station
Personal Weather Station
Location: Bloomington, IN
Elevation: 0 ft
Nearby Weather Stations

Elev 0 ft 39.15 °N, 86.47 °W | Updated 13 seconds ago

Overcast
Overcast
72.9 °F
Feels Like 76 °F
N
0.2
Wind Variable Wind from NNE
Gusts 2.5 mph

Today
High -- | Low -- °F
--% Chance of Precip.
Yesterday
High -- | Low -- °F
Precip. -- in
6:24 AM 9:15 PM
Waning Gibbous, 95% visible
Pressure 29.88 in
Visibility 10.0 miles
Clouds Few 1800 ft
Mostly Cloudy 3300 ft
Overcast 8000 ft
Heat Index 76 °F
Dew Point 60 °F
Humidity 63%
Rainfall 0.00 in
Snow Depth Not available.
UV 1.0 out of 12
Pollen .50 out of 12
Air Quality Not available.
Flu Activity Not available.
SPECI KBMG 032216Z 02007KT 10SM FEW018 BKN033 OVC080 23/19 A2988 RMK AO2 T02330189

More Conditions Fewer Conditions

Pressure 29.88 in
Visibility 10.0 miles
Clouds Few 1800 ft
Mostly Cloudy 3300 ft
Overcast 8000 ft
Heat Index 76 °F
Dew Point 60 °F
Humidity 63%
Rainfall 0.00 in
Snow Depth Not available.
UV 1.0 out of 12
Pollen .50 out of 12
Air Quality Not available.
Flu Activity Not available.
SPECI KBMG 032216Z 02007KT 10SM FEW018 BKN033 OVC080 23/19 A2988 RMK AO2 T02330189

More Conditions Fewer Conditions

10-Day Weather Forecast

×

Almanac

Astronomy

Jul. 03, 2015 Rise Set
Actual Time
Civil Twilight
Nautical Twilight
Astronomical Twilight
Moon
Length of Visible Light
Length of Day
Tomorrow will be .
, % of the Moon is Illuminated

Today's Extremes

State Highs State Lows

Community

WunderPhotos

Upload Photos

1,834,807 photos uploaded!

WunderBlogs® & News

Nearby

Air Quality

  Air Quality AQ Index Pollutant
Not available.

Snow Depth

Station Depth Elevation

Earthquake Activity

City Distance Mag. Time & Date
Minimum magnitude displayed is 2.5.

Coastal Water Temperatures

Place Temperature

Stations

Nearby Weather Stations

Station Location Temp. Windchill Dew Point Humidity Wind Precip. Elev Updated Type